Time;durP1;ratioP1;P1;durP2;ratioP2;P2;SDS_P1;SDS_P2;PMS_P1;PMS_P2;Temp;Humidity;BMP_temperature;BMP_pressure;BME280_temperature;BME280_humidity;BME280_pressure;Samples;Min_cycle;Max_cycle;Signal;HPM_P1;HPM_P2
2022/10/28 00:01:08;;;;;;;17.27;10.93;;;;;;;8.18;100.00;100580.14;1672697;85;20952;-72
2022/10/28 00:03:42;;;;;;;15.58;10.03;;;;;;;8.18;100.00;100585.06;1681338;84;21008;-72
2022/10/28 00:06:16;;;;;;;19.42;10.38;;;;;;;8.20;100.00;100587.53;1693674;84;20951;-72
2022/10/28 00:08:44;;;;;;;20.37;10.25;;;;;;;8.21;100.00;100590.53;1687389;84;21118;-72
2022/10/28 00:11:18;;;;;;;14.25;9.23;;;;;;;8.19;100.00;100587.25;1693440;84;20975;-72
2022/10/28 00:13:45;;;;;;;14.20;9.33;;;;;;;8.19;100.00;100591.36;1687136;84;21517;-73
2022/10/28 00:16:29;;;;;;;18.23;10.28;;;;;;;8.20;100.00;100596.55;1689496;84;21063;-73
2022/10/28 00:18:57;;;;;;;16.82;10.60;;;;;;;8.20;100.00;100586.98;1699923;84;20969;-72
2022/10/28 00:21:29;;;;;;;19.80;10.98;;;;;;;8.21;100.00;100589.17;1665049;83;21385;-73
2022/10/28 00:23:56;;;;;;;19.20;11.05;;;;;;;8.19;100.00;100585.34;1686057;84;20979;-72
2022/10/28 00:26:28;;;;;;;21.75;11.00;;;;;;;8.20;100.00;100587.53;1683504;84;20904;-72
2022/10/28 00:28:59;;;;;;;22.67;10.15;;;;;;;8.19;100.00;100587.25;1692439;84;21483;-72
2022/10/28 00:31:27;;;;;;;20.35;10.80;;;;;;;8.18;100.00;100587.80;1677696;83;21043;-73
2022/10/28 00:33:54;;;;;;;23.45;11.83;;;;;;;8.19;100.00;100586.70;1676462;84;21114;-73
2022/10/28 00:36:26;;;;;;;18.80;11.30;;;;;;;8.20;100.00;100588.34;1665034;84;20948;-74
2022/10/28 00:38:54;;;;;;;20.88;10.80;;;;;;;8.22;100.00;100589.44;1681708;83;20980;-73
2022/10/28 00:41:25;;;;;;;19.23;12.05;;;;;;;8.22;100.00;100591.62;1664815;84;21072;-73
2022/10/28 00:43:54;;;;;;;18.17;11.28;;;;;;;8.21;100.00;100591.36;1681432;84;21102;-73
2022/10/28 00:46:39;;;;;;;18.17;11.05;;;;;;;8.19;100.00;100585.34;1670314;85;21154;-73
2022/10/28 00:49:26;;;;;;;18.85;11.30;;;;;;;8.19;100.00;100589.99;1670098;86;21514;-73
2022/10/28 00:51:58;;;;;;;18.80;11.88;;;;;;;8.18;100.00;100591.08;1670178;84;21589;-73
2022/10/28 00:54:25;;;;;;;24.35;12.03;;;;;;;8.20;100.00;100587.53;1674151;84;21435;-73
2022/10/28 00:56:54;;;;;;;23.02;11.95;;;;;;;8.21;100.00;100585.89;1683414;83;20999;-73
2022/10/28 00:59:27;;;;;;;23.32;11.33;;;;;;;8.21;100.00;100586.44;1687653;84;21131;-72
2022/10/28 01:01:53;;;;;;;18.35;12.23;;;;;;;8.21;100.00;100589.98;1682067;84;21439;-72
2022/10/28 01:04:22;;;;;;;25.20;12.15;;;;;;;8.21;100.00;100590.53;1686150;83;21549;-72
2022/10/28 01:06:50;;;;;;;19.10;11.15;;;;;;;8.21;100.00;100589.17;1689342;84;20895;-73
2022/10/28 01:09:18;;;;;;;17.30;11.05;;;;;;;8.22;100.00;100594.91;1676727;84;20885;-73
2022/10/28 01:12:02;;;;;;;23.18;11.73;;;;;;;8.23;100.00;100593.81;1684057;84;21030;-72
2022/10/28 01:15:06;;;;;;;18.85;10.60;;;;;;;8.21;100.00;100587.80;1679351;84;21487;-73
2022/10/28 01:18:01;;;;;;;23.35;12.18;;;;;;;8.20;100.00;100584.80;1683830;84;21482;-72
2022/10/28 01:21:13;;;;;;;22.05;11.90;;;;;;;8.20;100.00;100581.51;1682730;84;21487;-73
2022/10/28 01:23:54;;;;;;;18.47;11.43;;;;;;;8.21;100.00;100574.95;1673956;84;21006;-73
2022/10/28 01:27:01;;;;;;;24.30;11.68;;;;;;;8.21;100.00;100581.78;1685309;84;21624;-73
2022/10/28 01:29:55;;;;;;;24.37;11.83;;;;;;;8.20;100.00;100577.95;1643645;84;21044;-74
2022/10/28 01:32:33;;;;;;;17.07;10.98;;;;;;;8.20;100.00;100585.61;1676961;84;20992;-73
2022/10/28 01:35:11;;;;;;;22.52;12.75;;;;;;;8.17;100.00;100580.69;1676921;83;21546;-73
2022/10/28 01:38:10;;;;;;;19.67;11.12;;;;;;;8.17;100.00;100575.77;1689202;83;21457;-73
2022/10/28 01:41:06;;;;;;;22.02;11.35;;;;;;;8.15;100.00;100577.41;1679296;84;21910;-73
2022/10/28 01:43:55;;;;;;;17.35;11.03;;;;;;;8.13;100.00;100578.78;1580290;89;21150;-73
2022/10/28 01:46:30;;;;;;;18.35;11.68;;;;;;;8.11;100.00;100576.86;1578176;87;21130;-73
2022/10/28 01:49:09;;;;;;;24.15;12.37;;;;;;;8.09;100.00;100587.26;1610794;87;21004;-73
2022/10/28 01:51:40;;;;;;;19.92;12.23;;;;;;;8.06;100.00;100583.73;1681853;84;20896;-73
2022/10/28 01:54:07;;;;;;;19.55;11.97;;;;;;;8.02;100.00;100581.27;1666441;84;21310;-74
2022/10/28 01:56:38;;;;;;;25.82;12.98;;;;;;;8.01;100.00;100590.02;1666522;84;21098;-73
2022/10/28 01:59:07;;;;;;;17.92;12.37;;;;;;;8.00;100.00;100584.83;1681803;85;20943;-72
2022/10/28 02:01:33;;;;;;;27.20;12.85;;;;;;;7.99;100.00;100589.48;1685220;84;21495;-72
2022/10/28 02:04:01;;;;;;;25.92;12.85;;;;;;;7.98;100.00;100591.12;1696274;84;21428;-72
2022/10/28 02:06:29;;;;;;;24.43;12.18;;;;;;;7.97;100.00;100593.58;1692025;84;21191;-72
2022/10/28 02:09:06;;;;;;;21.93;13.35;;;;;;;7.94;100.00;100594.39;1694731;83;20995;-72
2022/10/28 02:12:03;;;;;;;20.97;13.22;;;;;;;7.90;100.00;100592.48;1690002;84;20939;-72
2022/10/28 02:14:51;;;;;;;21.93;13.13;;;;;;;7.84;100.00;100588.92;1673877;84;20912;-72
2022/10/28 02:18:00;;;;;;;19.85;11.48;;;;;;;7.83;100.00;100591.92;1674721;85;20885;-72
2022/10/28 02:20:44;;;;;;;28.45;13.78;;;;;;;7.83;100.00;100592.75;1690072;84;21227;-71
2022/10/28 02:23:34;;;;;;;24.30;12.60;;;;;;;7.77;100.00;100587.00;1698915;84;21483;-71
2022/10/28 05:46:33;;;;;;;20.43;8.40;;;;;;;5.71;100.00;100598.78;1700683;82;20888;-69
2022/10/28 05:49:00;;;;;;;24.30;8.58;;;;;;;5.69;100.00;100605.57;1721347;82;20915;-71
2022/10/28 05:51:26;;;;;;;29.15;8.10;;;;;;;5.67;100.00;100610.45;1717139;82;20992;-69
2022/10/28 05:53:53;;;;;;;30.43;9.38;;;;;;;5.70;100.00;100609.94;1708605;82;20880;-69
2022/10/28 05:56:20;;;;;;;18.27;9.85;;;;;;;5.69;100.00;100609.11;1714795;82;21770;-73
2022/10/28 05:58:48;;;;;;;13.72;8.28;;;;;;;5.71;100.00;100609.68;1695008;83;21009;-70
2022/10/28 06:01:19;;;;;;;12.73;8.35;;;;;;;5.78;100.00;100608.90;1674131;83;20920;-71
2022/10/28 06:03:48;;;;;;;17.45;8.83;;;;;;;5.87;100.00;100604.62;1677651;84;20945;-72
2022/10/28 06:06:21;;;;;;;20.77;8.43;;;;;;;6.01;100.00;100612.41;1676555;83;22005;-69
2022/10/28 06:08:47;;;;;;;22.55;9.40;;;;;;;6.13;100.00;100611.69;1674542;84;21185;-72
2022/10/28 06:11:14;;;;;;;17.85;8.48;;;;;;;6.16;100.00;100611.17;1694916;82;21036;-72
2022/10/28 06:13:42;;;;;;;18.62;9.85;;;;;;;6.19;100.00;100613.37;1670275;83;20986;-72
2022/10/28 06:16:11;;;;;;;22.17;10.18;;;;;;;6.21;100.00;100615.30;1677674;83;20908;-72
2022/10/28 06:18:46;;;;;;;21.17;9.00;;;;;;;6.32;100.00;100619.76;1676823;84;21122;-70
2022/10/28 06:21:13;;;;;;;22.58;8.65;;;;;;;6.42;100.00;100615.70;1683437;83;21184;-73
2022/10/28 06:23:42;;;;;;;22.22;9.83;;;;;;;6.47;100.00;100612.19;1687316;82;20957;-74
2022/10/28 06:26:10;;;;;;;21.75;9.13;;;;;;;6.47;100.00;100622.56;1679615;84;20951;-72
2022/10/28 06:28:37;;;;;;;24.10;9.33;;;;;;;6.47;100.00;100627.20;1684152;84;21892;-71
2022/10/28 06:31:08;;;;;;;25.85;10.25;;;;;;;6.41;100.00;100624.97;1682793;84;20999;-72
2022/10/28 06:33:35;;;;;;;28.60;8.63;;;;;;;6.39;100.00;100629.87;1676207;84;21175;-72
2022/10/28 06:36:04;;;;;;;47.03;12.63;;;;;;;6.40;100.00;100624.70;1656778;84;21470;-75
2022/10/28 06:38:31;;;;;;;21.50;9.90;;;;;;;6.39;100.00;100631.77;1681058;83;20999;-72
2022/10/28 06:41:02;;;;;;;21.73;9.53;;;;;;;6.39;100.00;100631.77;1649941;84;21581;-68
2022/10/28 06:43:30;;;;;;;45.40;8.75;;;;;;;6.42;100.00;100631.25;1685182;84;21130;-77
2022/10/28 06:46:04;;;;;;;19.62;10.08;;;;;;;6.43;100.00;100635.08;1685708;84;21251;-73
2022/10/28 06:48:40;;;;;;;13.28;7.42;;;;;;;6.44;100.00;100638.09;1682800;84;21585;-73
2022/10/28 06:51:11;;;;;;;20.55;10.58;;;;;;;6.54;100.00;100629.98;1689343;84;21031;-73
2022/10/28 06:53:38;;;;;;;26.87;10.55;;;;;;;6.58;100.00;100632.46;1681099;83;21020;-77
2022/10/28 06:56:11;;;;;;;19.57;9.13;;;;;;;6.69;100.00;100636.08;1684611;83;20856;-77
2022/10/28 06:58:44;;;;;;;15.70;9.10;;;;;;;6.75;100.00;100636.93;1692562;82;21721;-77
2022/10/28 07:01:10;;;;;;;31.35;10.23;;;;;;;6.79;100.00;100632.05;1679340;83;25756;-73
2022/10/28 07:03:39;;;;;;;25.43;8.30;;;;;;;6.85;100.00;100626.08;1681370;85;21099;-72
2022/10/28 07:06:06;;;;;;;15.83;10.63;;;;;;;6.90;100.00;100626.92;1660801;85;21059;-80
2022/10/28 07:08:35;;;;;;;16.00;10.88;;;;;;;6.96;100.00;100631.84;1651126;86;21036;-80
2022/10/28 07:11:08;;;;;;;20.92;11.18;;;;;;;7.08;100.00;100632.45;1639959;84;21003;-73
2022/10/28 07:13:40;;;;;;;45.95;19.50;;;;;;;7.22;100.00;100630.87;1635703;85;21637;-69
2022/10/28 07:16:13;;;;;;;48.85;19.73;;;;;;;7.33;100.00;100629.00;1640688;85;33863;-74
2022/10/28 07:18:41;;;;;;;81.53;30.57;;;;;;;7.47;100.00;100626.59;1643930;86;20980;-75
2022/10/28 07:21:08;;;;;;;87.70;32.55;;;;;;;7.47;100.00;100626.59;1687396;84;21499;-69
2022/10/28 07:23:38;;;;;;;74.05;31.60;;;;;;;7.51;100.00;100620.28;1679701;83;20900;-74
2022/10/28 07:26:10;;;;;;;90.95;37.40;;;;;;;7.61;100.00;100623.05;1670455;83;20911;-73
2022/10/28 07:28:46;;;;;;;85.92;33.90;;;;;;;7.74;100.00;100618.97;1658409;82;21039;-68
2022/10/28 07:31:19;;;;;;;95.97;38.53;;;;;;;7.83;100.00;100618.72;1698546;82;21955;-74
2022/10/28 07:33:55;;;;;;;83.72;34.00;;;;;;;7.85;100.00;100612.98;1687690;83;21552;-73
2022/10/28 07:36:29;;;;;;;75.70;32.42;;;;;;;7.85;100.00;100604.23;1669145;84;21176;-77
2022/10/28 07:38:57;;;;;;;62.23;27.65;;;;;;;7.85;100.00;100601.49;1672189;83;21102;-73
2022/10/28 07:41:29;;;;;;;30.97;15.68;;;;;;;7.84;100.00;100599.85;1640521;84;21576;-73
2022/10/28 07:44:03;;;;;;;21.82;13.00;;;;;;;7.94;100.00;100606.70;1655668;83;21518;-73
2022/10/28 07:46:31;;;;;;;20.85;11.15;;;;;;;8.02;100.00;100607.25;1677096;84;21074;-73
2022/10/28 07:49:03;;;;;;;17.25;10.03;;;;;;;8.06;100.00;100613.27;1659290;85;21277;-73
2022/10/28 07:51:32;;;;;;;16.25;10.35;;;;;;;8.09;100.00;100607.77;1644595;87;20991;-70
2022/10/28 07:54:02;;;;;;;14.43;10.32;;;;;;;8.17;100.00;100604.48;1639705;86;20928;-76
2022/10/28 07:56:32;;;;;;;12.55;8.73;;;;;;;8.29;100.00;100607.77;1659503;85;20991;-75
2022/10/28 07:59:00;;;;;;;18.77;10.88;;;;;;;8.41;100.00;100609.70;1668132;83;21553;-71
2022/10/28 08:01:27;;;;;;;18.65;9.55;;;;;;;8.56;100.00;100608.86;1669549;84;21139;-82
2022/10/28 08:03:57;;;;;;;15.75;10.48;;;;;;;8.84;100.00;100612.88;1679772;85;21091;-84
2022/10/28 08:06:24;;;;;;;13.78;9.25;;;;;;;9.25;100.00;100613.53;1679377;83;21534;-71
2022/10/28 08:08:56;;;;;;;14.75;9.93;;;;;;;9.74;100.00;100613.54;1681407;84;20999;-71
2022/10/28 08:11:26;;;;;;;12.47;8.98;;;;;;;10.13;100.00;100616.25;1683381;83;21020;-79
2022/10/28 08:13:55;;;;;;;10.95;8.00;;;;;;;10.46;100.00;100620.64;1676689;84;21553;-82
2022/10/28 08:16:27;;;;;;;10.88;8.45;;;;;;;10.71;100.00;100620.39;1640748;85;21031;-75
2022/10/28 08:18:55;;;;;;;13.03;7.80;;;;;;;10.93;100.00;100621.81;1665859;85;20967;-79
2022/10/28 08:21:25;;;;;;;13.05;8.88;;;;;;;11.20;100.00;100614.59;1647545;83;21110;-77
2022/10/28 08:23:58;;;;;;;14.75;8.28;;;;;;;11.52;100.00;100616.66;1651104;84;21063;-75
2022/10/28 08:26:25;;;;;;;12.37;7.87;;;;;;;11.84;100.00;100613.17;1647863;85;22261;-76
2022/10/28 08:28:54;;;;;;;11.70;7.50;;;;;;;12.13;100.00;100606.67;1661758;84;21111;-74
2022/10/28 08:31:22;;;;;;;12.75;7.65;;;;;;;12.32;100.00;100614.88;1697709;82;21509;-80
2022/10/28 08:33:53;;;;;;;15.18;9.05;;;;;;;12.68;100.00;100613.69;1687920;84;21003;-85
2022/10/28 08:36:21;;;;;;;14.83;8.98;;;;;;;13.16;100.00;100612.19;1688106;83;21063;-73
2022/10/28 08:38:50;;;;;;;13.03;7.62;;;;;;;13.34;100.00;100613.73;1676962;83;21256;-73
2022/10/28 08:41:56;;;;;;;20.25;8.08;;;;;;;13.42;99.38;100617.15;1684245;83;21063;-73
2022/10/28 08:44:45;;;;;;;13.75;7.12;;;;;;;13.61;99.45;100621.97;1672623;83;21075;-73
2022/10/28 08:47:41;;;;;;;13.25;6.55;;;;;;;14.00;98.10;100614.98;1519227;92;21547;-73
2022/10/28 08:50:14;;;;;;;14.95;7.50;;;;;;;14.35;93.33;100614.69;1680070;83;20903;-70
2022/10/28 08:52:51;;;;;;;11.08;7.28;;;;;;;14.44;90.22;100615.59;1672253;84;21128;-74
2022/10/28 08:55:33;;;;;;;9.65;7.05;;;;;;;14.53;88.54;100611.72;1693999;83;20895;-85
2022/10/28 08:58:25;;;;;;;9.00;7.03;;;;;;;14.61;86.36;100606.56;1667485;83;21011;-79
2022/10/28 09:00:58;;;;;;;10.20;6.33;;;;;;;14.71;85.40;100607.67;1700474;83;20996;-83
2022/10/28 09:03:28;;;;;;;8.08;6.40;;;;;;;14.86;84.74;100606.69;1706645;82;20951;-80
2022/10/28 09:06:15;;;;;;;9.80;5.95;;;;;;;15.05;82.39;100609.17;1659246;83;21127;-82
2022/10/28 09:08:47;;;;;;;14.03;8.45;;;;;;;15.15;81.55;100599.78;1689253;83;21010;-76
2022/10/28 09:11:57;;;;;;;18.95;10.32;;;;;;;15.25;82.03;100595.33;1656610;82;21502;-75
2022/10/28 09:14:51;;;;;;;43.02;23.02;;;;;;;15.53;80.79;100592.55;1673071;84;20973;-78
2022/10/28 09:17:34;;;;;;;49.15;24.82;;;;;;;15.97;77.79;100584.27;1667610;84;21031;-76
2022/10/28 09:20:32;;;;;;;40.83;20.65;;;;;;;16.27;76.58;100583.23;1687612;83;21236;-72
2022/10/28 09:23:11;;;;;;;10.93;7.00;;;;;;;16.67;74.65;100574.70;1678059;83;21566;-78
2022/10/28 09:26:05;;;;;;;7.78;5.75;;;;;;;16.95;74.09;100573.09;1713954;82;21014;-76
2022/10/28 09:29:29;;;;;;;7.58;4.45;;;;;;;17.24;72.69;100572.86;1712359;82;20985;-74
2022/10/28 09:32:01;;;;;;;13.83;9.15;;;;;;;17.40;71.49;100572.48;1642853;83;21060;-72
2022/10/28 09:34:44;;;;;;;14.30;9.50;;;;;;;17.55;69.27;100567.73;1645582;84;21312;-78
2022/10/28 09:37:23;;;;;;;12.15;8.38;;;;;;;17.79;68.25;100558.19;1635047;86;21051;-72
2022/10/28 09:39:59;;;;;;;11.40;6.65;;;;;;;17.95;66.26;100558.34;1714113;82;21131;-72
2022/10/28 09:42:33;;;;;;;19.25;9.65;;;;;;;17.91;65.86;100556.63;1705295;83;21010;-74
2022/10/28 09:45:11;;;;;;;9.05;6.20;;;;;;;17.92;64.90;100561.80;1722174;82;20920;-75
2022/10/28 09:47:43;;;;;;;14.63;8.60;;;;;;;17.92;64.59;100556.83;1698358;83;21341;-76
2022/10/28 09:50:19;;;;;;;8.55;4.22;;;;;;;17.95;63.98;100558.34;1702669;82;20936;-75
2022/10/28 09:53:22;;;;;;;13.75;3.72;;;;;;;17.86;63.52;100557.64;1719191;82;20963;-76
2022/10/28 09:55:49;;;;;;;7.08;3.25;;;;;;;17.84;63.44;100557.74;1722762;82;20921;-76
2022/10/28 09:58:17;;;;;;;6.10;2.95;;;;;;;17.75;63.88;100555.84;1710296;81;20990;-72
2022/10/28 10:00:44;;;;;;;5.10;2.95;;;;;;;17.82;63.02;100548.36;1710345;82;21699;-73
2022/10/28 10:03:10;;;;;;;3.80;2.90;;;;;;;17.81;61.71;100543.38;1708666;82;20928;-71
2022/10/28 10:05:41;;;;;;;5.22;3.58;;;;;;;17.70;62.29;100546.91;1718376;82;20948;-72
2022/10/28 10:08:12;;;;;;;4.95;2.72;;;;;;;17.65;62.23;100542.37;1705530;83;20893;-82
2022/10/28 10:10:54;;;;;;;2.52;2.00;;;;;;;17.61;61.31;100542.78;1699520;82;21014;-79
2022/10/28 10:13:37;;;;;;;5.08;2.77;;;;;;;17.54;60.38;100534.75;1689696;84;21528;-72
2022/10/28 10:16:19;;;;;;;3.98;2.25;;;;;;;17.47;60.57;100530.55;1687589;83;21585;-72
2022/10/28 10:18:49;;;;;;;6.00;2.70;;;;;;;17.40;60.21;100530.28;1685327;83;20983;-75
2022/10/28 10:21:19;;;;;;;3.85;2.40;;;;;;;17.33;61.39;100532.78;1688212;82;21079;-74
2022/10/28 10:23:45;;;;;;;5.95;3.33;;;;;;;17.34;62.32;100531.63;1667337;85;20985;-81
2022/10/28 10:26:12;;;;;;;7.05;2.92;;;;;;;17.42;61.41;100531.33;1657099;84;21289;-77
2022/10/28 10:28:47;;;;;;;3.98;3.20;;;;;;;17.49;61.77;100526.05;1655804;85;21035;-84
2022/10/28 10:31:24;;;;;;;5.03;2.67;;;;;;;17.64;61.85;100523.25;1653744;84;20944;-75
2022/10/28 10:33:56;;;;;;;10.23;2.87;;;;;;;17.77;60.33;100527.74;1639383;85;21091;-82
2022/10/28 10:36:30;;;;;;;7.80;3.95;;;;;;;17.98;61.14;100521.55;1662278;85;20921;-80
2022/10/28 10:38:58;;;;;;;5.00;3.77;;;;;;;18.03;59.68;100517.17;1677665;84;21210;-75
2022/10/28 10:41:39;;;;;;;8.73;3.80;;;;;;;18.02;59.92;100518.33;1669203;84;21263;-75
2022/10/28 10:44:30;;;;;;;7.62;4.28;;;;;;;17.92;59.50;100515.97;1674675;83;20991;-73
2022/10/28 10:47:05;;;;;;;7.62;4.60;;;;;;;17.91;58.54;100516.34;1660360;83;21052;-74
2022/10/28 10:49:34;;;;;;;8.45;3.70;;;;;;;17.93;59.70;100518.98;1668206;83;21099;-72
2022/10/28 10:52:21;;;;;;;5.17;3.72;;;;;;;18.05;58.52;100510.70;1681320;83;21790;-72
2022/10/28 10:55:07;;;;;;;3.33;2.15;;;;;;;18.13;58.42;100510.38;1683334;83;21059;-75
2022/10/28 10:57:33;;;;;;;6.55;2.83;;;;;;;18.27;57.07;100508.09;1685098;84;21435;-72
2022/10/28 11:00:00;;;;;;;5.12;2.65;;;;;;;18.26;57.18;100508.44;1682828;83;20952;-71
2022/10/28 11:02:33;;;;;;;5.45;2.42;;;;;;;18.19;56.36;100512.36;1687692;84;20935;-76
2022/10/28 11:05:08;;;;;;;4.08;2.60;;;;;;;17.99;56.50;100514.03;1685712;84;21913;-76
2022/10/28 11:07:36;;;;;;;5.92;2.20;;;;;;;17.73;56.63;100504.58;1673604;84;20897;-70
2022/10/28 11:10:03;;;;;;;6.60;2.77;;;;;;;17.61;57.67;100506.69;1680273;83;20959;-72
2022/10/28 11:12:35;;;;;;;3.90;2.40;;;;;;;17.77;58.08;100509.69;1656840;83;21114;-77
2022/10/28 11:15:24;;;;;;;2.65;2.17;;;;;;;17.98;57.35;100509.62;1686077;84;20916;-76
2022/10/28 11:18:18;;;;;;;5.03;2.40;;;;;;;18.12;56.81;100504.58;1711117;83;21878;-75
2022/10/28 11:21:04;;;;;;;11.28;6.12;;;;;;;18.30;56.01;100499.65;1701310;83;20971;-72
2022/10/28 11:23:51;;;;;;;23.52;10.48;;;;;;;18.39;56.65;100502.56;1684543;83;20948;-73
2022/10/28 11:26:18;;;;;;;10.23;5.70;;;;;;;18.50;55.26;100494.56;1675019;84;21009;-83
2022/10/28 11:29:02;;;;;;;6.58;3.52;;;;;;;18.43;55.28;100498.52;1680109;85;20910;-74
2022/10/28 11:31:46;;;;;;;14.03;3.37;;;;;;;18.34;55.77;100491.67;1679377;85;21877;-75
2022/10/28 11:34:46;;;;;;;10.78;4.65;;;;;;;18.37;56.17;100482.64;1678223;84;21089;-73
2022/10/28 11:37:35;;;;;;;31.60;12.58;;;;;;;18.55;55.82;100481.82;1675343;85;21029;-75
2022/10/28 11:40:41;;;;;;;28.30;12.23;;;;;;;18.59;55.47;100481.94;1682645;85;21472;-74
2022/10/28 11:43:39;;;;;;;22.22;8.75;;;;;;;18.55;54.63;100488.77;1683180;84;21015;-74
2022/10/28 11:46:32;;;;;;;14.80;7.12;;;;;;;18.34;55.05;100485.30;1689042;82;21535;-73
2022/10/28 11:49:10;;;;;;;54.63;21.37;;;;;;;18.23;55.00;100487.70;1702546;82;20897;-73
2022/10/28 11:52:01;;;;;;;13.28;6.80;;;;;;;18.10;55.66;100482.70;1698060;83;20984;-74
2022/10/28 11:54:36;;;;;;;9.95;4.60;;;;;;;17.94;55.75;100479.52;1703817;83;21463;-74
2022/10/28 11:57:14;;;;;;;6.53;3.92;;;;;;;17.89;56.29;100470.85;1705900;83;20968;-75
2022/10/28 12:00:25;;;;;;;9.00;3.42;;;;;;;18.01;56.34;100472.25;1705288;83;21104;-74
2022/10/28 12:03:44;;;;;;;5.58;2.67;;;;;;;18.14;56.60;100472.52;1709591;83;20896;-74
2022/10/28 12:06:40;;;;;;;4.50;2.77;;;;;;;18.36;55.23;100471.28;1713056;82;20940;-74
2022/10/28 12:09:47;;;;;;;4.40;2.67;;;;;;;18.38;55.54;100466.20;1705766;82;21440;-75
2022/10/28 12:12:22;;;;;;;5.75;2.77;;;;;;;18.41;54.91;100461.91;1689624;83;20999;-74
2022/10/28 12:15:12;;;;;;;11.48;6.42;;;;;;;18.49;55.16;100457.60;1674966;84;20920;-73
2022/10/28 12:17:59;;;;;;;21.82;8.93;;;;;;;18.50;55.21;100452.86;1671808;83;20857;-74
2022/10/28 12:21:15;;;;;;;28.65;12.95;;;;;;;18.48;54.37;100457.98;1673704;84;21043;-74
2022/10/28 12:23:51;;;;;;;10.13;5.67;;;;;;;18.36;54.22;100450.44;1679089;84;21014;-75
2022/10/28 12:26:22;;;;;;;5.65;3.70;;;;;;;18.31;54.39;100450.66;1670121;85;20897;-75
2022/10/28 12:28:55;;;;;;;4.83;3.22;;;;;;;18.24;55.58;100440.70;1652472;85;21262;-74
2022/10/28 12:31:28;;;;;;;22.85;8.73;;;;;;;18.26;56.36;100443.13;1686424;83;21542;-74
2022/10/28 12:34:01;;;;;;;21.42;10.40;;;;;;;18.27;55.05;100448.34;1689143;84;20999;-74
2022/10/28 12:36:49;;;;;;;18.77;8.45;;;;;;;18.12;54.89;100445.65;1698365;82;21498;-75
2022/10/28 12:39:32;;;;;;;7.58;3.67;;;;;;;18.04;55.22;100443.78;1680357;84;20963;-74
2022/10/28 12:42:21;;;;;;;6.65;3.00;;;;;;;17.92;55.82;100438.77;1691592;84;21183;-75
2022/10/28 12:44:56;;;;;;;;;;;;;;;17.80;57.36;100438.19;1669781;83;20904;-75
2022/10/28 12:47:34;;;;;;;5.83;4.20;;;;;;;17.70;56.97;100433.87;1674294;83;20471;-75
2022/10/28 12:50:31;;;;;;;6.15;3.47;;;;;;;17.61;58.06;100440.63;1681042;84;21012;-75
2022/10/28 12:53:17;;;;;;;9.18;3.90;;;;;;;17.69;57.75;100437.80;1679704;84;21527;-74
2022/10/28 12:55:56;;;;;;;21.00;9.08;;;;;;;17.82;57.52;100435.88;1684943;84;20991;-73
2022/10/28 12:58:58;;;;;;;9.30;4.00;;;;;;;17.89;57.23;100437.52;1688221;84;20944;-74
2022/10/28 13:01:29;;;;;;;;;;;;;;;18.02;57.62;100434.17;1692172;84;21043;-75
2022/10/28 13:04:01;;;;;;;15.70;7.25;;;;;;;18.20;57.52;100436.17;1689344;84;20110;-76
2022/10/28 13:07:03;;;;;;;26.95;11.18;;;;;;;18.26;56.35;100436.99;1686725;83;21463;-75
2022/10/28 13:09:56;;;;;;;;;;;;;;;18.15;55.94;100438.59;1686981;84;21493;-75
2022/10/28 13:12:34;;;;;;;87.92;38.48;;;;;;;17.89;56.98;100439.48;1692370;83;20430;-81
2022/10/28 13:15:45;;;;;;;25.48;12.20;;;;;;;17.85;57.81;100439.36;1681948;84;21486;-76
2022/10/28 13:18:37;;;;;;;11.75;4.67;;;;;;;17.83;57.28;100430.56;1660563;84;21057;-75
2022/10/28 13:21:37;;;;;;;25.92;12.10;;;;;;;17.59;57.48;100428.48;1664371;83;21011;-71
2022/10/28 13:24:36;;;;;;;29.00;12.20;;;;;;;17.29;58.56;100434.73;1685292;83;22238;-75
2022/10/28 13:27:03;;;;;;;9.38;4.58;;;;;;;17.04;60.47;100431.58;1631939;85;21498;-73
2022/10/28 13:29:35;;;;;;;5.67;3.15;;;;;;;16.88;61.14;100433.31;1685550;83;20976;-74
2022/10/28 13:32:23;;;;;;;14.23;4.05;;;;;;;16.67;61.28;100430.53;1669945;84;21023;-74
2022/10/28 13:34:51;;;;;;;19.12;4.53;;;;;;;16.43;62.63;100426.38;1615255;87;21067;-72
2022/10/28 13:37:23;;;;;;;15.23;5.25;;;;;;;16.18;63.94;100435.05;1657870;85;21059;-73
2022/10/28 13:39:53;;;;;;;11.53;5.35;;;;;;;16.04;64.71;100428.93;1660607;85;21008;-74
2022/10/28 13:42:34;;;;;;;8.50;4.97;;;;;;;15.92;65.36;100422.45;1656583;85;21008;-73
2022/10/28 13:45:07;;;;;;;13.78;4.90;;;;;;;15.76;65.58;100425.74;1683466;83;21542;-77
2022/10/28 13:47:40;;;;;;;19.92;5.45;;;;;;;15.61;65.94;100423.48;1655766;84;21005;-76
2022/10/28 13:50:17;;;;;;;12.45;5.55;;;;;;;15.36;66.72;100420.98;1692547;84;21499;-78
2022/10/28 13:53:20;;;;;;;8.13;4.70;;;;;;;15.14;67.97;100419.77;1685923;84;21514;-79
2022/10/28 13:55:51;;;;;;;11.22;5.03;;;;;;;14.94;69.02;100421.23;1637655;85;21602;-84
2022/10/28 13:58:25;;;;;;;9.45;4.83;;;;;;;14.73;69.90;100421.61;1642288;84;21103;-79
2022/10/28 14:00:55;;;;;;;8.73;4.72;;;;;;;14.58;70.59;100420.67;1694780;82;21000;-78
2022/10/28 14:03:31;;;;;;;15.08;5.35;;;;;;;14.46;71.37;100417.15;1726493;82;21204;-77
2022/10/28 14:06:02;;;;;;;9.85;4.83;;;;;;;14.37;72.10;100415.73;1730086;82;21008;-73
2022/10/28 14:08:41;;;;;;;7.80;4.80;;;;;;;14.32;72.66;100415.06;1724089;82;20952;-72
2022/10/28 14:11:23;;;;;;;7.83;4.60;;;;;;;14.26;73.04;100413.02;1702170;82;21000;-79
2022/10/28 14:13:55;;;;;;;12.15;5.22;;;;;;;14.15;73.50;100411.10;1715259;83;20987;-81
2022/10/28 14:16:38;;;;;;;12.65;5.15;;;;;;;14.07;74.27;100409.12;1703907;82;23635;-77
2022/10/28 14:19:21;;;;;;;13.48;5.00;;;;;;;14.03;75.01;100408.12;1688142;82;21542;-79
2022/10/28 14:22:06;;;;;;;15.68;4.70;;;;;;;13.99;76.23;100404.37;1667476;83;21130;-82
2022/10/28 14:24:43;;;;;;;8.58;4.67;;;;;;;13.93;76.69;100404.25;1688487;82;21055;-80
2022/10/28 14:27:17;;;;;;;6.60;4.33;;;;;;;13.83;77.77;100403.17;1665083;83;21723;-77
2022/10/28 14:29:56;;;;;;;6.35;4.15;;;;;;;13.69;79.59;100394.16;1630957;85;21222;-79
2022/10/28 14:32:39;;;;;;;7.47;4.40;;;;;;;13.57;81.15;100392.55;1662928;84;20957;-74
2022/10/28 14:35:15;;;;;;;6.70;4.10;;;;;;;13.41;81.59;100395.69;1655381;85;21114;-75
2022/10/28 14:38:07;;;;;;;14.23;5.35;;;;;;;13.27;83.44;100386.69;1675052;83;21046;-74
2022/10/28 14:40:55;;;;;;;17.17;6.58;;;;;;;13.12;84.05;100382.89;1687612;84;20943;-73
2022/10/28 14:43:50;;;;;;;10.95;6.15;;;;;;;12.93;85.70;100385.00;1660045;83;21222;-74
2022/10/28 14:47:06;;;;;;;8.50;4.87;;;;;;;12.74;86.71;100384.58;1667501;84;21056;-74
2022/10/28 14:49:37;;;;;;;8.13;5.87;;;;;;;12.55;88.09;100382.00;1686149;83;21030;-69
2022/10/28 14:52:25;;;;;;;14.00;6.55;;;;;;;12.36;89.70;100374.42;1707905;83;21072;-74
2022/10/28 14:54:57;;;;;;;14.75;6.47;;;;;;;12.22;90.42;100370.30;1721821;82;21058;-72
2022/10/28 14:57:31;;;;;;;10.38;5.67;;;;;;;12.12;91.32;100375.22;1679761;82;21405;-72
2022/10/28 15:00:09;;;;;;;17.23;6.78;;;;;;;12.03;91.84;100375.67;1686340;82;20940;-76
2022/10/28 15:02:40;;;;;;;16.55;7.05;;;;;;;11.93;92.58;100371.73;1707292;82;21011;-72
2022/10/28 15:05:25;;;;;;;14.47;7.05;;;;;;;11.81;93.19;100377.18;1704063;82;20963;-74
2022/10/28 15:07:59;;;;;;;14.20;6.45;;;;;;;11.69;94.14;100371.88;1721929;82;21059;-74
2022/10/28 15:10:32;;;;;;;15.48;7.37;;;;;;;11.53;94.91;100375.48;1711416;82;21499;-73
2022/10/28 15:13:03;;;;;;;18.40;6.97;;;;;;;11.38;95.61;100374.38;1717212;82;21598;-73
2022/10/28 15:15:33;;;;;;;12.18;7.53;;;;;;;11.22;96.47;100376.56;1715974;83;21043;-73
2022/10/28 15:18:29;;;;;;;16.10;8.80;;;;;;;11.04;97.36;100371.34;1689259;82;21101;-75
2022/10/28 15:21:12;;;;;;;14.90;7.75;;;;;;;10.93;98.65;100373.20;1720796;82;20971;-72
2022/10/28 15:23:44;;;;;;;15.68;8.83;;;;;;;10.80;99.65;100375.58;1661718;82;21008;-72
2022/10/28 15:26:19;;;;;;;22.07;9.25;;;;;;;10.68;100.00;100374.38;1719115;82;20961;-72